Wilmington, California
Current Conditions -  °F | °C
As of 3:53 PM on Sunday 25 Jan 2015 (Local Time) from KLGB Reporting Station
Clear Clear  
Wind Chill: 81°   Ceiling: Unl
Heat Index: 81°   Visibility: 10mi
Dew Point: 37°   Wind: 0mph
Humidity: 21%   Direction: NA
Pressure: 29.94"   Gusts: NA
Location:  33.78°N, 118.26°W
Report Text: KLGB 252353Z 00000KT 10SM CLR 27/03 A2994 RMK AO2 SLP138 T02720028 10272 20222 56008
Loading
Personal Weather Stations






























Interactive Weather Map New forecast layout! Learn more

10-Day Weather Forecast

Advertisements
Track Severe Weather on mobile